sensor_id;sensor_type;location;lat;lon;timestamp;pressure;altitude;pressure_sealevel;temperature;humidity
27729;BME280;15126;42.186;24.340;2023-04-07T00:01:44;99116.81;;;7.81;49.17
27729;BME280;15126;42.186;24.340;2023-04-07T00:04:11;99120.00;;;7.79;49.81
27729;BME280;15126;42.186;24.340;2023-04-07T00:06:38;99111.69;;;7.79;49.18
27729;BME280;15126;42.186;24.340;2023-04-07T00:09:05;99123.97;;;7.78;49.50
27729;BME280;15126;42.186;24.340;2023-04-07T00:11:32;99120.06;;;7.76;48.81
27729;BME280;15126;42.186;24.340;2023-04-07T00:13:58;99118.91;;;7.73;47.29
27729;BME280;15126;42.186;24.340;2023-04-07T00:16:25;99120.00;;;7.79;48.55
27729;BME280;15126;42.186;24.340;2023-04-07T00:18:54;99127.88;;;7.85;48.19
27729;BME280;15126;42.186;24.340;2023-04-07T00:21:20;99119.19;;;7.83;48.42
27729;BME280;15126;42.186;24.340;2023-04-07T00:23:47;99118.38;;;7.82;47.99
27729;BME280;15126;42.186;24.340;2023-04-07T00:26:14;99113.31;;;7.77;48.19
27729;BME280;15126;42.186;24.340;2023-04-07T00:28:41;99125.09;;;7.85;47.82
27729;BME280;15126;42.186;24.340;2023-04-07T00:31:08;99124.66;;;7.86;48.78
27729;BME280;15126;42.186;24.340;2023-04-07T00:33:34;99119.19;;;7.83;48.03
27729;BME280;15126;42.186;24.340;2023-04-07T00:36:03;99122.25;;;7.88;47.56
27729;BME280;15126;42.186;24.340;2023-04-07T00:38:30;99126.25;;;7.87;47.41
27729;BME280;15126;42.186;24.340;2023-04-07T00:40:57;99125.41;;;7.90;48.07
27729;BME280;15126;42.186;24.340;2023-04-07T00:43:24;99134.28;;;7.78;49.03
27729;BME280;15126;42.186;24.340;2023-04-07T00:45:51;99128.88;;;7.67;47.28
27729;BME280;15126;42.186;24.340;2023-04-07T00:48:19;99131.69;;;7.64;47.43
27729;BME280;15126;42.186;24.340;2023-04-07T00:50:46;99131.31;;;7.62;47.83
27729;BME280;15126;42.186;24.340;2023-04-07T00:53:14;99130.59;;;7.58;47.09
27729;BME280;15126;42.186;24.340;2023-04-07T00:55:41;99129.47;;;7.52;46.51
27729;BME280;15126;42.186;24.340;2023-04-07T00:58:08;99130.88;;;7.33;47.35
27729;BME280;15126;42.186;24.340;2023-04-07T01:00:42;99133.31;;;7.28;46.94
27729;BME280;15126;42.186;24.340;2023-04-07T01:03:17;99137.25;;;7.30;48.04
27729;BME280;15126;42.186;24.340;2023-04-07T01:05:49;99125.81;;;7.25;49.11
27729;BME280;15126;42.186;24.340;2023-04-07T01:08:24;99131.28;;;7.32;46.49
27729;BME280;15126;42.186;24.340;2023-04-07T01:10:59;99135.59;;;7.36;48.70
27729;BME280;15126;42.186;24.340;2023-04-07T01:13:31;99116.56;;;7.38;49.53
27729;BME280;15126;42.186;24.340;2023-04-07T01:16:03;99131.59;;;7.41;49.17
27729;BME280;15126;42.186;24.340;2023-04-07T01:18:31;99123.72;;;7.36;47.48
27729;BME280;15126;42.186;24.340;2023-04-07T01:21:02;99119.00;;;7.33;49.29
27729;BME280;15126;42.186;24.340;2023-04-07T01:23:41;99119.16;;;7.18;47.35
27729;BME280;15126;42.186;24.340;2023-04-07T01:26:18;99124.69;;;7.18;49.60
27729;BME280;15126;42.186;24.340;2023-04-07T01:28:56;99121.72;;;6.99;48.56
27729;BME280;15126;42.186;24.340;2023-04-07T01:31:28;99127.69;;;6.97;49.53
27729;BME280;15126;42.186;24.340;2023-04-07T01:33:58;99123.72;;;6.98;48.76
27729;BME280;15126;42.186;24.340;2023-04-07T01:36:27;99126.09;;;7.00;49.23
27729;BME280;15126;42.186;24.340;2023-04-07T01:38:58;99130.09;;;6.95;48.85
27729;BME280;15126;42.186;24.340;2023-04-07T01:41:26;99125.03;;;6.83;51.74
27729;BME280;15126;42.186;24.340;2023-04-07T01:43:54;99132.63;;;6.79;48.05
27729;BME280;15126;42.186;24.340;2023-04-07T01:46:22;99123.06;;;6.84;50.63
27729;BME280;15126;42.186;24.340;2023-04-07T01:48:50;99133.00;;;6.81;49.72
27729;BME280;15126;42.186;24.340;2023-04-07T01:51:19;99133.34;;;6.87;49.98
27729;BME280;15126;42.186;24.340;2023-04-07T01:53:46;99142.81;;;6.89;50.45
27729;BME280;15126;42.186;24.340;2023-04-07T01:56:14;99140.03;;;6.89;49.24
27729;BME280;15126;42.186;24.340;2023-04-07T01:58:41;99132.47;;;6.93;51.49
27729;BME280;15126;42.186;24.340;2023-04-07T02:01:08;99129.28;;;6.98;50.85
27729;BME280;15126;42.186;24.340;2023-04-07T02:03:39;99130.78;;;7.06;50.59
27729;BME280;15126;42.186;24.340;2023-04-07T02:06:12;99132.78;;;7.02;50.98
27729;BME280;15126;42.186;24.340;2023-04-07T02:08:45;99142.75;;;6.96;52.04
27729;BME280;15126;42.186;24.340;2023-04-07T02:11:14;99135.19;;;7.00;53.42
27729;BME280;15126;42.186;24.340;2023-04-07T02:13:43;99130.09;;;6.95;51.79
27729;BME280;15126;42.186;24.340;2023-04-07T02:16:11;99135.63;;;6.95;52.29
27729;BME280;15126;42.186;24.340;2023-04-07T02:18:39;99136.00;;;6.97;51.16
27729;BME280;15126;42.186;24.340;2023-04-07T02:21:07;99137.91;;;7.04;50.98
27729;BME280;15126;42.186;24.340;2023-04-07T02:23:36;99135.19;;;7.00;50.68
27729;BME280;15126;42.186;24.340;2023-04-07T02:26:03;99135.19;;;7.00;49.95
27729;BME280;15126;42.186;24.340;2023-04-07T02:28:30;99131.19;;;7.01;50.83
27729;BME280;15126;42.186;24.340;2023-04-07T02:30:57;99138.31;;;7.06;50.65
27729;BME280;15126;42.186;24.340;2023-04-07T02:33:24;99136.34;;;7.03;52.03
27729;BME280;15126;42.186;24.340;2023-04-07T02:35:51;99129.59;;;7.04;51.10
27729;BME280;15126;42.186;24.340;2023-04-07T02:38:17;99132.69;;;7.09;50.29
27729;BME280;15126;42.186;24.340;2023-04-07T02:40:45;99122.50;;;7.03;49.41
27729;BME280;15126;42.186;24.340;2023-04-07T02:43:13;99126.88;;;7.00;48.91
27729;BME280;15126;42.186;24.340;2023-04-07T02:45:40;99132.81;;;6.99;51.17
27729;BME280;15126;42.186;24.340;2023-04-07T02:48:07;99135.19;;;7.00;49.70
27729;BME280;15126;42.186;24.340;2023-04-07T02:50:34;99140.41;;;6.91;50.66
27729;BME280;15126;42.186;24.340;2023-04-07T02:53:01;99134.47;;;6.93;52.28
27729;BME280;15126;42.186;24.340;2023-04-07T02:55:28;99124.22;;;6.90;50.84
27729;BME280;15126;42.186;24.340;2023-04-07T02:57:56;99135.59;;;6.99;51.54
27729;BME280;15126;42.186;24.340;2023-04-07T03:00:22;99137.59;;;6.98;52.64
27729;BME280;15126;42.186;24.340;2023-04-07T03:02:49;99140.31;;;7.02;52.12
27729;BME280;15126;42.186;24.340;2023-04-07T03:05:16;99138.69;;;7.04;52.70
27729;BME280;15126;42.186;24.340;2023-04-07T03:07:43;99139.16;;;6.99;51.81
27729;BME280;15126;42.186;24.340;2023-04-07T03:10:10;99145.47;;;7.03;52.91
27729;BME280;15126;42.186;24.340;2023-04-07T03:12:37;99138.41;;;6.95;53.48
27729;BME280;15126;42.186;24.340;2023-04-07T03:15:07;99144.31;;;6.97;51.49
27729;BME280;15126;42.186;24.340;2023-04-07T03:17:34;99143.97;;;6.95;51.27
27729;BME280;15126;42.186;24.340;2023-04-07T03:20:00;99135.22;;;6.97;52.18
27729;BME280;15126;42.186;24.340;2023-04-07T03:22:28;99132.81;;;6.99;52.52
27729;BME280;15126;42.186;24.340;2023-04-07T03:24:55;99141.56;;;6.97;51.11
27729;BME280;15126;42.186;24.340;2023-04-07T03:27:21;99136.38;;;6.99;51.63
27729;BME280;15126;42.186;24.340;2023-04-07T03:29:48;99144.66;;;7.03;52.63
27729;BME280;15126;42.186;24.340;2023-04-07T03:32:20;99136.81;;;6.94;52.29
27729;BME280;15126;42.186;24.340;2023-04-07T03:34:46;99142.72;;;7.00;51.08
27729;BME280;15126;42.186;24.340;2023-04-07T03:37:13;99148.22;;;7.03;50.93
27729;BME280;15126;42.186;24.340;2023-04-07T03:39:42;99160.88;;;7.04;52.06
27729;BME280;15126;42.186;24.340;2023-04-07T03:42:09;99158.09;;;7.04;50.99
27729;BME280;15126;42.186;24.340;2023-04-07T03:44:35;99151.03;;;7.00;52.47
27729;BME280;15126;42.186;24.340;2023-04-07T03:47:02;99160.50;;;7.02;51.72
27729;BME280;15126;42.186;24.340;2023-04-07T03:49:30;99149.84;;;7.01;51.85
27729;BME280;15126;42.186;24.340;2023-04-07T03:51:57;99157.72;;;7.02;52.33
27729;BME280;15126;42.186;24.340;2023-04-07T03:54:24;99162.19;;;6.93;53.44
27729;BME280;15126;42.186;24.340;2023-04-07T03:56:51;99158.56;;;6.99;53.45
27729;BME280;15126;42.186;24.340;2023-04-07T03:59:18;99153.19;;;6.82;52.06
27729;BME280;15126;42.186;24.340;2023-04-07T04:01:45;99162.34;;;6.75;50.39
27729;BME280;15126;42.186;24.340;2023-04-07T04:04:11;99162.31;;;6.79;51.27
27729;BME280;15126;42.186;24.340;2023-04-07T04:06:40;99158.47;;;6.66;48.66
27729;BME280;15126;42.186;24.340;2023-04-07T04:09:06;99157.22;;;6.70;51.13
27729;BME280;15126;42.186;24.340;2023-04-07T04:11:33;99159.59;;;6.72;51.57
27729;BME280;15126;42.186;24.340;2023-04-07T04:14:00;99161.53;;;6.78;49.30
27729;BME280;15126;42.186;24.340;2023-04-07T04:16:27;99155.28;;;6.64;50.16
27729;BME280;15126;42.186;24.340;2023-04-07T04:18:55;99161.25;;;6.62;50.32
27729;BME280;15126;42.186;24.340;2023-04-07T04:21:22;99168.75;;;6.65;49.28
27729;BME280;15126;42.186;24.340;2023-04-07T04:23:52;99166.00;;;6.65;49.74
27729;BME280;15126;42.186;24.340;2023-04-07T04:26:19;99160.38;;;6.72;51.22
27729;BME280;15126;42.186;24.340;2023-04-07T04:28:50;99170.28;;;6.73;50.43
27729;BME280;15126;42.186;24.340;2023-04-07T04:31:17;99173.00;;;6.77;51.55
27729;BME280;15126;42.186;24.340;2023-04-07T04:33:44;99186.47;;;6.78;51.36
27729;BME280;15126;42.186;24.340;2023-04-07T04:36:10;99176.53;;;6.84;49.67
27729;BME280;15126;42.186;24.340;2023-04-07T04:38:37;99167.03;;;6.82;51.09
27729;BME280;15126;42.186;24.340;2023-04-07T04:41:06;99182.81;;;6.88;50.01
27729;BME280;15126;42.186;24.340;2023-04-07T04:43:33;99184.38;;;6.89;51.51
27729;BME280;15126;42.186;24.340;2023-04-07T04:45:59;99184.44;;;6.82;48.46
27729;BME280;15126;42.186;24.340;2023-04-07T04:48:26;99188.34;;;6.88;50.10
27729;BME280;15126;42.186;24.340;2023-04-07T04:50:53;99192.28;;;6.91;49.64
27729;BME280;15126;42.186;24.340;2023-04-07T04:53:20;99195.03;;;6.94;50.70
27729;BME280;15126;42.186;24.340;2023-04-07T04:55:47;99191.50;;;6.90;49.84
27729;BME280;15126;42.186;24.340;2023-04-07T04:58:19;99201.66;;;7.07;48.93
27729;BME280;15126;42.186;24.340;2023-04-07T05:00:46;99192.97;;;7.05;49.08
27729;BME280;15126;42.186;24.340;2023-04-07T05:03:13;99193.28;;;7.14;50.07
27729;BME280;15126;42.186;24.340;2023-04-07T05:05:40;99192.44;;;7.17;49.38
27729;BME280;15126;42.186;24.340;2023-04-07T05:08:09;99197.94;;;7.25;50.00
27729;BME280;15126;42.186;24.340;2023-04-07T05:10:37;99188.09;;;7.16;50.14
27729;BME280;15126;42.186;24.340;2023-04-07T05:13:05;99211.66;;;7.39;49.21
27729;BME280;15126;42.186;24.340;2023-04-07T05:15:33;99209.22;;;7.44;48.81
27729;BME280;15126;42.186;24.340;2023-04-07T05:18:00;99210.00;;;7.45;49.83
27729;BME280;15126;42.186;24.340;2023-04-07T05:20:27;99212.03;;;7.41;49.82
27729;BME280;15126;42.186;24.340;2023-04-07T05:22:54;99198.63;;;7.32;48.76
27729;BME280;15126;42.186;24.340;2023-04-07T05:25:21;99217.22;;;7.39;51.39
27729;BME280;15126;42.186;24.340;2023-04-07T05:27:48;99219.59;;;7.37;50.98
27729;BME280;15126;42.186;24.340;2023-04-07T05:30:15;99221.84;;;7.49;52.21
27729;BME280;15126;42.186;24.340;2023-04-07T05:32:43;99226.97;;;7.50;49.93
27729;BME280;15126;42.186;24.340;2023-04-07T05:35:10;99223.00;;;7.55;50.39
27729;BME280;15126;42.186;24.340;2023-04-07T05:37:37;99229.72;;;7.54;50.52
27729;BME280;15126;42.186;24.340;2023-04-07T05:40:04;99223.25;;;7.64;50.65
27729;BME280;15126;42.186;24.340;2023-04-07T05:42:32;99227.59;;;7.68;52.32
27729;BME280;15126;42.186;24.340;2023-04-07T05:44:59;99222.53;;;7.60;48.92
27729;BME280;15126;42.186;24.340;2023-04-07T05:47:26;99219.22;;;7.72;50.04
27729;BME280;15126;42.186;24.340;2023-04-07T05:49:54;99219.06;;;7.86;51.17
27729;BME280;15126;42.186;24.340;2023-04-07T05:52:22;99218.53;;;7.98;49.75
27729;BME280;15126;42.186;24.340;2023-04-07T05:54:49;99218.41;;;8.05;50.16
27729;BME280;15126;42.186;24.340;2023-04-07T05:57:16;99223.50;;;8.10;49.45
27729;BME280;15126;42.186;24.340;2023-04-07T05:59:43;99226.56;;;8.19;48.22
27729;BME280;15126;42.186;24.340;2023-04-07T06:02:10;99219.34;;;8.25;48.06
27729;BME280;15126;42.186;24.340;2023-04-07T06:04:37;99218.88;;;8.34;48.48
27729;BME280;15126;42.186;24.340;2023-04-07T06:07:05;99226.28;;;8.44;50.97
27729;BME280;15126;42.186;24.340;2023-04-07T06:09:32;99227.38;;;8.50;50.88
27729;BME280;15126;42.186;24.340;2023-04-07T06:11:59;99214.38;;;8.44;45.50
27729;BME280;15126;42.186;24.340;2023-04-07T06:14:29;99222.03;;;8.63;48.39
27729;BME280;15126;42.186;24.340;2023-04-07T06:16:56;99227.47;;;8.70;47.88
27729;BME280;15126;42.186;24.340;2023-04-07T06:19:23;99226.53;;;8.80;47.94
27729;BME280;15126;42.186;24.340;2023-04-07T06:21:51;99231.13;;;8.90;46.74
27729;BME280;15126;42.186;24.340;2023-04-07T06:24:20;99226.19;;;9.01;46.89
27729;BME280;15126;42.186;24.340;2023-04-07T06:26:49;99230.91;;;9.04;46.72
27729;BME280;15126;42.186;24.340;2023-04-07T06:29:16;99221.47;;;8.98;44.39
27729;BME280;15126;42.186;24.340;2023-04-07T06:31:43;99212.28;;;9.01;46.22
27729;BME280;15126;42.186;24.340;2023-04-07T06:34:10;99228.97;;;9.24;47.10
27729;BME280;15126;42.186;24.340;2023-04-07T06:36:37;99235.94;;;9.36;45.10
27729;BME280;15126;42.186;24.340;2023-04-07T06:39:04;99243.00;;;9.40;44.30
27729;BME280;15126;42.186;24.340;2023-04-07T06:41:32;99230.31;;;9.39;43.39
27729;BME280;15126;42.186;24.340;2023-04-07T06:43:59;99232.66;;;9.41;42.16
27729;BME280;15126;42.186;24.340;2023-04-07T06:46:26;99236.34;;;9.57;46.38
27729;BME280;15126;42.186;24.340;2023-04-07T06:48:52;99244.44;;;9.72;45.25
27729;BME280;15126;42.186;24.340;2023-04-07T06:51:19;99240.59;;;9.85;43.26
27729;BME280;15126;42.186;24.340;2023-04-07T06:53:46;99240.72;;;9.98;44.98
27729;BME280;15126;42.186;24.340;2023-04-07T06:56:14;99236.88;;;9.92;40.92
27729;BME280;15126;42.186;24.340;2023-04-07T06:58:42;99235.81;;;10.05;42.61
27729;BME280;15126;42.186;24.340;2023-04-07T07:01:09;99242.16;;;10.06;43.19
27729;BME280;15126;42.186;24.340;2023-04-07T07:03:35;99244.84;;;10.13;41.72
27729;BME280;15126;42.186;24.340;2023-04-07T07:06:03;99244.56;;;10.27;42.32
27729;BME280;15126;42.186;24.340;2023-04-07T07:08:29;99235.97;;;10.38;41.75
27729;BME280;15126;42.186;24.340;2023-04-07T07:10:56;99237.00;;;10.44;43.61
27729;BME280;15126;42.186;24.340;2023-04-07T07:13:24;99242.25;;;10.58;42.83
27729;BME280;15126;42.186;24.340;2023-04-07T07:15:53;99237.28;;;10.49;41.27
27729;BME280;15126;42.186;24.340;2023-04-07T07:18:20;99236.13;;;10.47;40.48
27729;BME280;15126;42.186;24.340;2023-04-07T07:20:46;99236.00;;;10.54;40.80
27729;BME280;15126;42.186;24.340;2023-04-07T07:23:13;99237.66;;;10.51;40.05
27729;BME280;15126;42.186;24.340;2023-04-07T07:25:40;99234.50;;;10.49;42.91
27729;BME280;15126;42.186;24.340;2023-04-07T07:28:07;99241.16;;;10.71;41.55
27729;BME280;15126;42.186;24.340;2023-04-07T07:30:34;99239.09;;;10.75;40.21
27729;BME280;15126;42.186;24.340;2023-04-07T07:33:02;99234.75;;;10.91;42.19
27729;BME280;15126;42.186;24.340;2023-04-07T07:35:29;99224.97;;;11.15;38.91
27729;BME280;15126;42.186;24.340;2023-04-07T07:37:57;99225.50;;;11.26;41.58
27729;BME280;15126;42.186;24.340;2023-04-07T07:40:24;99223.97;;;11.54;41.01
27729;BME280;15126;42.186;24.340;2023-04-07T07:42:50;99219.66;;;11.81;41.93
27729;BME280;15126;42.186;24.340;2023-04-07T07:45:17;99223.13;;;11.85;37.14
27729;BME280;15126;42.186;24.340;2023-04-07T07:47:44;99224.69;;;12.15;41.82
27729;BME280;15126;42.186;24.340;2023-04-07T07:50:12;99206.84;;;12.38;37.51
27729;BME280;15126;42.186;24.340;2023-04-07T07:52:39;99213.78;;;12.59;36.25
27729;BME280;15126;42.186;24.340;2023-04-07T07:55:08;99211.66;;;12.75;42.10
27729;BME280;15126;42.186;24.340;2023-04-07T07:57:35;99211.13;;;12.93;35.03
27729;BME280;15126;42.186;24.340;2023-04-07T08:00:02;99214.00;;;13.02;37.08
27729;BME280;15126;42.186;24.340;2023-04-07T08:02:29;99200.94;;;13.11;33.94
27729;BME280;15126;42.186;24.340;2023-04-07T08:04:58;99205.16;;;13.29;36.74
27729;BME280;15126;42.186;24.340;2023-04-07T08:07:26;99211.84;;;13.44;37.11
27729;BME280;15126;42.186;24.340;2023-04-07T08:09:53;99209.78;;;13.57;36.13
27729;BME280;15126;42.186;24.340;2023-04-07T08:12:20;99196.50;;;13.70;34.69
27729;BME280;15126;42.186;24.340;2023-04-07T08:14:47;99200.38;;;13.85;38.31
27729;BME280;15126;42.186;24.340;2023-04-07T08:17:14;99198.88;;;13.93;34.76
27729;BME280;15126;42.186;24.340;2023-04-07T08:19:41;99196.47;;;14.04;32.92
27729;BME280;15126;42.186;24.340;2023-04-07T08:22:08;99202.00;;;13.95;33.06
27729;BME280;15126;42.186;24.340;2023-04-07T08:24:36;99187.91;;;13.86;30.05
27729;BME280;15126;42.186;24.340;2023-04-07T08:27:03;99196.50;;;13.70;30.48
27729;BME280;15126;42.186;24.340;2023-04-07T08:29:30;99194.75;;;13.51;31.53
27729;BME280;15126;42.186;24.340;2023-04-07T08:31:57;99191.66;;;13.49;35.84
27729;BME280;15126;42.186;24.340;2023-04-07T08:34:24;99194.44;;;13.49;33.23
27729;BME280;15126;42.186;24.340;2023-04-07T08:36:51;99191.97;;;13.51;33.72
27729;BME280;15126;42.186;24.340;2023-04-07T08:39:17;99181.63;;;13.60;37.41
27729;BME280;15126;42.186;24.340;2023-04-07T08:41:46;99176.31;;;13.75;35.09
27729;BME280;15126;42.186;24.340;2023-04-07T08:44:14;99184.78;;;13.84;31.09
27729;BME280;15126;42.186;24.340;2023-04-07T08:46:42;99173.94;;;13.95;37.80
27729;BME280;15126;42.186;24.340;2023-04-07T08:49:10;99183.84;;;14.09;38.86
27729;BME280;15126;42.186;24.340;2023-04-07T08:51:43;99183.47;;;14.19;33.07
27729;BME280;15126;42.186;24.340;2023-04-07T08:54:12;99184.44;;;14.25;31.98
27729;BME280;15126;42.186;24.340;2023-04-07T08:56:40;99183.97;;;14.27;31.71
27729;BME280;15126;42.186;24.340;2023-04-07T08:59:10;99164.78;;;14.25;34.25
27729;BME280;15126;42.186;24.340;2023-04-07T09:01:38;99170.16;;;14.32;35.21
27729;BME280;15126;42.186;24.340;2023-04-07T09:04:06;99180.81;;;14.38;31.91
27729;BME280;15126;42.186;24.340;2023-04-07T09:06:33;99181.03;;;14.30;32.74
27729;BME280;15126;42.186;24.340;2023-04-07T09:09:01;99167.13;;;14.27;31.64
27729;BME280;15126;42.186;24.340;2023-04-07T09:11:34;99183.03;;;14.30;33.19
27729;BME280;15126;42.186;24.340;2023-04-07T09:14:04;99179.59;;;14.26;31.68
27729;BME280;15126;42.186;24.340;2023-04-07T09:16:32;99168.59;;;14.32;32.61
27729;BME280;15126;42.186;24.340;2023-04-07T09:18:59;99172.19;;;14.32;31.78
27729;BME280;15126;42.186;24.340;2023-04-07T09:21:26;99154.47;;;14.44;37.58
27729;BME280;15126;42.186;24.340;2023-04-07T09:24:20;99164.97;;;14.53;33.14
27729;BME280;15126;42.186;24.340;2023-04-07T09:26:47;99156.22;;;14.51;33.72
27729;BME280;15126;42.186;24.340;2023-04-07T09:29:18;99152.09;;;14.34;31.26
27729;BME280;15126;42.186;24.340;2023-04-07T09:31:48;99164.09;;;14.34;34.36
27729;BME280;15126;42.186;24.340;2023-04-07T09:34:26;99161.28;;;14.34;31.79
27729;BME280;15126;42.186;24.340;2023-04-07T09:36:54;99153.38;;;14.42;31.11
27729;BME280;15126;42.186;24.340;2023-04-07T09:39:21;99149.84;;;14.50;31.95
27729;BME280;15126;42.186;24.340;2023-04-07T09:41:48;99153.72;;;14.53;33.29
27729;BME280;15126;42.186;24.340;2023-04-07T09:44:15;99154.41;;;14.66;34.44
27729;BME280;15126;42.186;24.340;2023-04-07T09:46:50;99149.44;;;14.70;37.58
27729;BME280;15126;42.186;24.340;2023-04-07T09:49:17;99158.63;;;14.70;33.58
27729;BME280;15126;42.186;24.340;2023-04-07T09:51:55;99161.03;;;14.81;31.35
27729;BME280;15126;42.186;24.340;2023-04-07T09:54:33;99147.91;;;14.87;34.30
27729;BME280;15126;42.186;24.340;2023-04-07T09:57:01;99162.00;;;14.96;36.13
27729;BME280;15126;42.186;24.340;2023-04-07T09:59:28;99161.25;;;15.05;34.51
27729;BME280;15126;42.186;24.340;2023-04-07T10:01:57;99162.38;;;15.25;32.37
27729;BME280;15126;42.186;24.340;2023-04-07T10:04:24;99166.59;;;15.30;31.82
27729;BME280;15126;42.186;24.340;2023-04-07T10:06:52;99164.88;;;15.23;32.96
27729;BME280;15126;42.186;24.340;2023-04-07T10:09:19;99149.72;;;15.39;32.79
27729;BME280;15126;42.186;24.340;2023-04-07T10:11:49;99153.81;;;15.38;31.22
27729;BME280;15126;42.186;24.340;2023-04-07T10:14:17;99158.63;;;15.37;33.24
27729;BME280;15126;42.186;24.340;2023-04-07T10:16:45;99151.34;;;15.49;37.49
27729;BME280;15126;42.186;24.340;2023-04-07T10:19:13;99150.53;;;15.58;35.04
27729;BME280;15126;42.186;24.340;2023-04-07T10:21:41;99139.94;;;15.53;33.91
27729;BME280;15126;42.186;24.340;2023-04-07T10:24:24;99138.06;;;15.68;32.07
27729;BME280;15126;42.186;24.340;2023-04-07T10:26:57;99143.50;;;15.71;35.43
27729;BME280;15126;42.186;24.340;2023-04-07T10:29:28;99125.59;;;15.60;30.29
27729;BME280;15126;42.186;24.340;2023-04-07T10:31:58;99136.03;;;15.59;32.95
27729;BME280;15126;42.186;24.340;2023-04-07T10:34:57;99142.44;;;15.78;35.04
27729;BME280;15126;42.186;24.340;2023-04-07T10:37:25;99146.03;;;15.69;33.84
27729;BME280;15126;42.186;24.340;2023-04-07T10:42:57;99140.22;;;15.91;34.34
27729;BME280;15126;42.186;24.340;2023-04-07T10:45:56;99139.56;;;16.05;31.27
27729;BME280;15126;42.186;24.340;2023-04-07T10:48:26;99124.31;;;15.70;30.51
27729;BME280;15126;42.186;24.340;2023-04-07T10:51:15;99130.84;;;15.85;30.33
27729;BME280;15126;42.186;24.340;2023-04-07T10:57:07;99121.03;;;15.71;32.60
27729;BME280;15126;42.186;24.340;2023-04-07T10:59:37;99121.19;;;15.68;29.14
27729;BME280;15126;42.186;24.340;2023-04-07T11:02:29;99116.50;;;15.46;35.76
27729;BME280;15126;42.186;24.340;2023-04-07T11:04:56;99123.69;;;15.47;31.32
27729;BME280;15126;42.186;24.340;2023-04-07T11:07:44;99123.38;;;15.45;33.73
27729;BME280;15126;42.186;24.340;2023-04-07T11:10:11;99125.56;;;15.51;35.35
27729;BME280;15126;42.186;24.340;2023-04-07T11:12:40;99116.50;;;15.46;31.95
27729;BME280;15126;42.186;24.340;2023-04-07T11:15:16;99116.84;;;15.48;32.11
27729;BME280;15126;42.186;24.340;2023-04-07T11:17:43;99118.38;;;15.40;33.12
27729;BME280;15126;42.186;24.340;2023-04-07T11:20:10;99116.78;;;15.39;33.92
27729;BME280;15126;42.186;24.340;2023-04-07T11:22:38;99117.28;;;15.47;34.20
27729;BME280;15126;42.186;24.340;2023-04-07T11:25:19;99117.00;;;15.54;32.76
27729;BME280;15126;42.186;24.340;2023-04-07T11:27:47;99114.16;;;15.63;32.19
27729;BME280;15126;42.186;24.340;2023-04-07T11:30:15;99109.31;;;15.73;31.32
27729;BME280;15126;42.186;24.340;2023-04-07T11:32:47;99114.59;;;15.89;33.61
27729;BME280;15126;42.186;24.340;2023-04-07T11:35:14;99108.03;;;15.83;29.61
27729;BME280;15126;42.186;24.340;2023-04-07T11:37:46;99122.25;;;15.97;31.80
27729;BME280;15126;42.186;24.340;2023-04-07T11:40:30;99076.81;;;15.81;30.95
27729;BME280;15126;42.186;24.340;2023-04-07T11:42:57;99104.72;;;16.02;33.54
27729;BME280;15126;42.186;24.340;2023-04-07T11:45:24;99100.47;;;16.16;33.94
27729;BME280;15126;42.186;24.340;2023-04-07T11:47:51;99087.19;;;16.07;34.36
27729;BME280;15126;42.186;24.340;2023-04-07T11:50:38;99103.75;;;16.15;34.51
27729;BME280;15126;42.186;24.340;2023-04-07T11:53:07;99097.34;;;16.14;33.25
27729;BME280;15126;42.186;24.340;2023-04-07T11:55:34;99100.63;;;16.13;32.63
27729;BME280;15126;42.186;24.340;2023-04-07T11:58:05;99095.16;;;16.09;33.08
27729;BME280;15126;42.186;24.340;2023-04-07T12:00:34;99078.97;;;15.86;32.01
27729;BME280;15126;42.186;24.340;2023-04-07T12:03:11;99093.53;;;15.84;31.25
27729;BME280;15126;42.186;24.340;2023-04-07T12:05:42;99086.97;;;15.78;33.45
27729;BME280;15126;42.186;24.340;2023-04-07T12:08:10;99088.38;;;15.74;32.91
27729;BME280;15126;42.186;24.340;2023-04-07T12:10:37;99078.25;;;15.58;32.44
27729;BME280;15126;42.186;24.340;2023-04-07T12:13:06;99092.75;;;15.75;34.90
27729;BME280;15126;42.186;24.340;2023-04-07T12:15:33;99095.84;;;15.95;32.33
27729;BME280;15126;42.186;24.340;2023-04-07T12:18:01;99092.41;;;15.91;33.10
27729;BME280;15126;42.186;24.340;2023-04-07T12:20:28;99099.53;;;16.10;32.96
27729;BME280;15126;42.186;24.340;2023-04-07T12:22:55;99086.47;;;15.98;32.13
27729;BME280;15126;42.186;24.340;2023-04-07T12:25:25;99094.22;;;16.12;31.68
27729;BME280;15126;42.186;24.340;2023-04-07T12:27:51;99094.84;;;16.16;34.29
27729;BME280;15126;42.186;24.340;2023-04-07T12:30:18;99103.34;;;15.98;33.83
27729;BME280;15126;42.186;24.340;2023-04-07T12:32:45;99092.34;;;16.09;32.30
27729;BME280;15126;42.186;24.340;2023-04-07T12:35:12;99063.63;;;16.05;32.46
27729;BME280;15126;42.186;24.340;2023-04-07T12:37:39;99090.53;;;15.97;32.72
27729;BME280;15126;42.186;24.340;2023-04-07T12:40:07;99090.22;;;15.95;32.41
27729;BME280;15126;42.186;24.340;2023-04-07T12:42:35;99083.81;;;15.94;32.08
27729;BME280;15126;42.186;24.340;2023-04-07T12:45:02;99086.63;;;15.85;32.09
27729;BME280;15126;42.186;24.340;2023-04-07T12:47:29;99075.13;;;15.65;31.53
27729;BME280;15126;42.186;24.340;2023-04-07T12:49:56;99083.09;;;15.58;31.91
27729;BME280;15126;42.186;24.340;2023-04-07T12:52:23;99098.22;;;15.42;31.30
27729;BME280;15126;42.186;24.340;2023-04-07T12:54:50;99082.44;;;15.44;32.24
27729;BME280;15126;42.186;24.340;2023-04-07T12:57:17;99090.09;;;15.44;32.60
27729;BME280;15126;42.186;24.340;2023-04-07T12:59:45;99075.56;;;15.36;32.53
27729;BME280;15126;42.186;24.340;2023-04-07T13:02:12;99065.56;;;15.44;32.27
27729;BME280;15126;42.186;24.340;2023-04-07T13:04:42;99074.50;;;15.52;35.32
27729;BME280;15126;42.186;24.340;2023-04-07T13:07:11;99081.84;;;15.49;34.00
27729;BME280;15126;42.186;24.340;2023-04-07T13:09:38;99082.78;;;15.46;32.76